Alveringem, Belgium
Current Conditions -  °F | °C
As of 11:55 AM on Friday 28 Nov 2014 (Local Time) from EBFN Reporting Station
Broken Clouds Broken Clouds  
Wind Chill: 52°   Ceiling: 22000
Heat Index: 52°   Visibility: 6mi
Dew Point: 48°   Wind: 13mph
Humidity: 88%   Direction: 90°E
Pressure: 29.65"   Gusts: NA
Location:  51.01°N, 2.71°E
Report Text: EBFN 281055Z 09011KT 9999 FEW065 BKN220 11/09 Q1004 BLU
Loading
Personal Weather Stations






























Interactive Weather Map New forecast layout! Learn more

10-Day Weather Forecast

Advertisements
Track Severe Weather on mobile